MV Cajun — WDH2458 — position and weather

sailwx.info

Track history (hours):
 
Tides and Currents Weather Stations Pressure Air Temp Water Temp Dewpoint Dewpoint Depression Visibility Wind Speed Wind Dir Waves Ship Positions

MV Cajun

Owner: M/V Cajun 1 LLC, new orleans, LA. More information available from US FCC via Universal Licensing System and Coast Guard Vessel Documentation Center.

Last reported at 2018-Jan-11 04:19 UTC. Time now 2018-Jan-19 01:31 UTC.
Position N 29°45' W 095°11'.

Length 221 m; draft 3 m.

Type: . MMSI: 367597820.

Date/timePositionNaut miles runAvg speedWind from/ knotsBaromVisibWave heightAir tempDewpointWater temp
2018-Jan-11 04:19N 29°45' W 095°11'2 6.6
2018-Jan-11 04:00N 29°44' W 095°09'3 6.4
2018-Jan-11 03:28N 29°46' W 095°05'1 1.5
2018-Jan-11 02:36N 29°47' W 095°05'1 6.1
2018-Jan-11 02:29N 29°46' W 095°05'1 0.4
2018-Jan-11 00:52N 29°46' W 095°05'0 0.4
2018-Jan-10 23:33N 29°45' W 095°06'0 0.5
2018-Jan-10 23:23N 29°46' W 095°06'1 2.8
2018-Jan-10 22:58N 29°46' W 095°05'0 0.2
2018-Jan-10 22:24N 29°46' W 095°05'1 0.4
2018-Jan-10 20:57N 29°46' W 095°05'3 5.9
2018-Jan-10 20:30N 29°44' W 095°03'1 2.5
2018-Jan-10 19:54N 29°44' W 095°01'2 4.4
2018-Jan-10 19:30N 29°44' W 095°03'3 2.5
2018-Jan-10 18:21N 29°47' W 095°04'0 0.0
2018-Jan-10 18:00N 29°47' W 095°04'0 0.5
2018-Jan-10 17:30N 29°47' W 095°05'0 0.0
2018-Jan-10 15:37N 29°47' W 095°05'0 0.1
2018-Jan-10 15:13N 29°47' W 095°04'0 0.1
2018-Jan-10 14:50N 29°47' W 095°05'1 1.2
2018-Jan-10 14:15N 29°46' W 095°05'2 4.9
2018-Jan-10 13:47N 29°44' W 095°06'2 5.6
2018-Jan-10 13:27N 29°44' W 095°09'5 4.2
2018-Jan-10 12:19N 29°44' W 095°14'0 0.1
2018-Jan-10 11:37N 29°44' W 095°14'0 0.1
2018-Jan-10 11:09N 29°44' W 095°14'0 0.0
2018-Jan-10 10:58N 29°44' W 095°14'0 0.0
2018-Jan-10 09:16N 29°44' W 095°14'3 3.1
2018-Jan-10 08:27N 29°45' W 095°11'3 6.0
2018-Jan-10 08:00N 29°44' W 095°08'3 4.8
2018-Jan-10 07:28N 29°45' W 095°06'0 0.0
2018-Jan-10 06:54N 29°45' W 095°06'0 0.1
2018-Jan-10 06:24N 29°45' W 095°06'0 0.3
2018-Jan-10 05:53N 29°45' W 095°06'2 4.7
2018-Jan-10 05:25N 29°44' W 095°08'5 1.4
2018-Jan-10 01:39N 29°44' W 095°14'3 5.0
2018-Jan-10 01:09N 29°45' W 095°11'1 5.3
2018-Jan-10 00:53N 29°45' W 095°10'3 5.1
2018-Jan-10 00:19N 29°45' W 095°06'2 4.9
2018-Jan-09 23:55N 29°46' W 095°05'1 1.0
2018-Jan-09 22:31N 29°47' W 095°04'0 3.7
2018-Jan-09 22:30N 29°47' W 095°04'3 1.2
2018-Jan-09 20:09N 29°45' W 095°04'1 6.0
2018-Jan-09 20:00N 29°44' W 095°03'2 4.6
2018-Jan-09 19:30N 29°42' W 095°01'3 5.1
2018-Jan-09 19:00N 29°41' W 094°59'3 5.6
2018-Jan-09 18:30N 29°38' W 094°58'3 6.3
2018-Jan-09 18:00N 29°35' W 094°56'3 6.9
2018-Jan-09 17:30N 29°32' W 094°54'3 6.9
2018-Jan-09 17:00N 29°29' W 094°52'3 6.9
2018-Jan-09 16:30N 29°26' W 094°50'  
2018-Jan-06 14:18N 30°04' W 094°03'0 0.0
2018-Jan-06 14:00N 30°04' W 094°03'0 0.0
2018-Jan-06 13:29N 30°04' W 094°03'0 0.0
2018-Jan-06 12:28N 30°04' W 094°03'  
2018-Jan-01 05:05N 30°03' W 093°43'1 5.7
2018-Jan-01 04:58N 30°03' W 093°42'  
Track history (hours):
 
Tides and Currents Weather Stations Pressure Air Temp Water Temp Dewpoint Dewpoint Depression Visibility Wind Speed Wind Dir Waves Ship Positions

MV Cajun

Owner: M/V Cajun 1 LLC, new orleans, LA. More information available from US FCC via Universal Licensing System and Coast Guard Vessel Documentation Center.

Last reported at 2018-Jan-11 04:19 UTC. Time now 2018-Jan-19 01:31 UTC.
Position N 29°45' W 095°11'.

Length 221 m; draft 3 m.

Type: . MMSI: 367597820.

Date/timePositionNaut miles runAvg speedWind from/ knotsBaromVisibWave heightAir tempDewpointWater temp
2018-Jan-11 04:19N 29°45' W 095°11'2 6.6
2018-Jan-11 04:00N 29°44' W 095°09'3 6.4
2018-Jan-11 03:28N 29°46' W 095°05'1 1.5
2018-Jan-11 02:36N 29°47' W 095°05'1 6.1
2018-Jan-11 02:29N 29°46' W 095°05'1 0.4
2018-Jan-11 00:52N 29°46' W 095°05'0 0.4
2018-Jan-10 23:33N 29°45' W 095°06'0 0.5
2018-Jan-10 23:23N 29°46' W 095°06'1 2.8
2018-Jan-10 22:58N 29°46' W 095°05'0 0.2
2018-Jan-10 22:24N 29°46' W 095°05'1 0.4
2018-Jan-10 20:57N 29°46' W 095°05'3 5.9
2018-Jan-10 20:30N 29°44' W 095°03'1 2.5
2018-Jan-10 19:54N 29°44' W 095°01'2 4.4
2018-Jan-10 19:30N 29°44' W 095°03'3 2.5
2018-Jan-10 18:21N 29°47' W 095°04'0 0.0
2018-Jan-10 18:00N 29°47' W 095°04'0 0.5
2018-Jan-10 17:30N 29°47' W 095°05'0 0.0
2018-Jan-10 15:37N 29°47' W 095°05'0 0.1
2018-Jan-10 15:13N 29°47' W 095°04'0 0.1
2018-Jan-10 14:50N 29°47' W 095°05'1 1.2
2018-Jan-10 14:15N 29°46' W 095°05'2 4.9
2018-Jan-10 13:47N 29°44' W 095°06'2 5.6
2018-Jan-10 13:27N 29°44' W 095°09'5 4.2
2018-Jan-10 12:19N 29°44' W 095°14'0 0.1
2018-Jan-10 11:37N 29°44' W 095°14'0 0.1
2018-Jan-10 11:09N 29°44' W 095°14'0 0.0
2018-Jan-10 10:58N 29°44' W 095°14'0 0.0
2018-Jan-10 09:16N 29°44' W 095°14'3 3.1
2018-Jan-10 08:27N 29°45' W 095°11'3 6.0
2018-Jan-10 08:00N 29°44' W 095°08'3 4.8
2018-Jan-10 07:28N 29°45' W 095°06'0 0.0
2018-Jan-10 06:54N 29°45' W 095°06'0 0.1
2018-Jan-10 06:24N 29°45' W 095°06'0 0.3
2018-Jan-10 05:53N 29°45' W 095°06'2 4.7
2018-Jan-10 05:25N 29°44' W 095°08'5 1.4
2018-Jan-10 01:39N 29°44' W 095°14'3 5.0
2018-Jan-10 01:09N 29°45' W 095°11'1 5.3
2018-Jan-10 00:53N 29°45' W 095°10'3 5.1
2018-Jan-10 00:19N 29°45' W 095°06'2 4.9
2018-Jan-09 23:55N 29°46' W 095°05'1 1.0
2018-Jan-09 22:31N 29°47' W 095°04'0 3.7
2018-Jan-09 22:30N 29°47' W 095°04'3 1.2
2018-Jan-09 20:09N 29°45' W 095°04'1 6.0
2018-Jan-09 20:00N 29°44' W 095°03'2 4.6
2018-Jan-09 19:30N 29°42' W 095°01'3 5.1
2018-Jan-09 19:00N 29°41' W 094°59'3 5.6
2018-Jan-09 18:30N 29°38' W 094°58'3 6.3
2018-Jan-09 18:00N 29°35' W 094°56'3 6.9
2018-Jan-09 17:30N 29°32' W 094°54'3 6.9
2018-Jan-09 17:00N 29°29' W 094°52'3 6.9
2018-Jan-09 16:30N 29°26' W 094°50'  
2018-Jan-06 14:18N 30°04' W 094°03'0 0.0
2018-Jan-06 14:00N 30°04' W 094°03'0 0.0
2018-Jan-06 13:29N 30°04' W 094°03'0 0.0
2018-Jan-06 12:28N 30°04' W 094°03'  
2018-Jan-01 05:05N 30°03' W 093°43'1 5.7
2018-Jan-01 04:58N 30°03' W 093°42'  

Dump ship's entire track history